Time;durP1;ratioP1;P1;durP2;ratioP2;P2;SDS_P1;SDS_P2;PMS_P1;PMS_P2;Temp;Humidity;BMP_temperature;BMP_pressure;BME280_temperature;BME280_humidity;BME280_pressure;Samples;Min_cycle;Max_cycle;Signal;HPM_P1;HPM_P2
2022/05/29 00:00:41;;;;;;;3.65;2.1;;;;;;;7.05;66.06738;95029.18;;;;
2022/05/29 00:01:41;;;;;;;3.65;2.1;;;;;;;7.05;66.06738;95029.18;;;;
2022/05/29 00:02:42;;;;;;;3.65;2.1;;;;;;;7.05;66.06738;95029.18;;;;
2022/05/29 00:03:42;;;;;;;3.8;2;;;;;;;6.91;66.32227;95029.74;;;;
2022/05/29 00:04:43;;;;;;;3.8;2;;;;;;;6.91;66.32227;95029.74;;;;
2022/05/29 00:05:44;;;;;;;3.8;2;;;;;;;6.91;66.32227;95029.74;;;;
2022/05/29 00:06:46;;;;;;;3.8;2;;;;;;;6.91;66.32227;95029.74;;;;
2022/05/29 00:07:50;;;;;;;3.8;2;;;;;;;6.91;66.32227;95029.74;;;;
2022/05/29 00:08:51;;;;;;;3.8;2;;;;;;;6.91;66.32227;95029.74;;;;
2022/05/29 00:09:52;;;;;;;3.8;2;;;;;;;6.91;66.32227;95029.74;;;;
2022/05/29 00:10:52;;;;;;;3.8;2;;;;;;;6.91;66.32227;95029.74;;;;
2022/05/29 00:11:53;;;;;;;3.8;2;;;;;;;6.91;66.32227;95029.74;;;;
2022/05/29 00:12:54;;;;;;;3.8;2;;;;;;;6.91;66.32227;95029.74;;;;
2022/05/29 00:14:00;;;;;;;4;2.25;;;;;;;6.85;66.5166;95009.51;;;;
2022/05/29 00:15:00;;;;;;;4;2.25;;;;;;;6.85;66.5166;95009.51;;;;
2022/05/29 00:16:01;;;;;;;4;2.25;;;;;;;6.85;66.5166;95009.51;;;;
2022/05/29 00:17:03;;;;;;;4;2.25;;;;;;;6.85;66.5166;95009.51;;;;
2022/05/29 00:18:04;;;;;;;4;2.25;;;;;;;6.85;66.5166;95009.51;;;;
2022/05/29 00:19:05;;;;;;;4;2.25;;;;;;;6.85;66.5166;95009.51;;;;
2022/05/29 00:20:05;;;;;;;4;2.25;;;;;;;6.85;66.5166;95009.51;;;;
2022/05/29 00:21:07;;;;;;;4;2.25;;;;;;;6.85;66.5166;95009.51;;;;
2022/05/29 00:22:08;;;;;;;4;2.25;;;;;;;6.85;66.5166;95009.51;;;;
2022/05/29 00:23:14;;;;;;;4;2.25;;;;;;;6.85;66.5166;95009.51;;;;
2022/05/29 00:24:15;;;;;;;4;2.25;;;;;;;6.85;66.5166;95009.51;;;;
2022/05/29 00:25:16;;;;;;;3.4;2.2;;;;;;;6.75;66.71484;95019.56;;;;
2022/05/29 00:26:16;;;;;;;3.4;2.2;;;;;;;6.75;66.71484;95019.56;;;;
2022/05/29 00:27:17;;;;;;;3.4;2.2;;;;;;;6.75;66.71484;95019.56;;;;
2022/05/29 00:28:18;;;;;;;3.4;2.2;;;;;;;6.75;66.71484;95019.56;;;;
2022/05/29 00:29:20;;;;;;;3.4;2.2;;;;;;;6.75;66.71484;95019.56;;;;
2022/05/29 00:30:20;;;;;;;3.4;2.2;;;;;;;6.75;66.71484;95019.56;;;;
2022/05/29 00:31:21;;;;;;;3.4;2.2;;;;;;;6.75;66.71484;95019.56;;;;
2022/05/29 00:32:21;;;;;;;3.4;2.2;;;;;;;6.75;66.71484;95019.56;;;;
2022/05/29 00:33:22;;;;;;;3.4;2.2;;;;;;;6.75;66.71484;95019.56;;;;
2022/05/29 00:34:22;;;;;;;3.4;2.2;;;;;;;6.75;66.71484;95019.56;;;;
2022/05/29 00:35:22;;;;;;;4.55;2.1;;;;;;;6.68;66.81152;94992.44;;;;
2022/05/29 00:36:23;;;;;;;4.55;2.1;;;;;;;6.68;66.81152;94992.44;;;;
2022/05/29 00:37:34;;;;;;;4.55;2.1;;;;;;;6.68;66.81152;94992.44;;;;
2022/05/29 00:38:38;;;;;;;4.55;2.1;;;;;;;6.68;66.81152;94992.44;;;;
2022/05/29 00:39:40;;;;;;;4.55;2.1;;;;;;;6.68;66.81152;94992.44;;;;
2022/05/29 00:40:42;;;;;;;4.55;2.1;;;;;;;6.68;66.81152;94992.44;;;;
2022/05/29 00:41:48;;;;;;;4.55;2.1;;;;;;;6.68;66.81152;94992.44;;;;
2022/05/29 00:42:48;;;;;;;4.55;2.1;;;;;;;6.68;66.81152;94992.44;;;;
2022/05/29 00:43:49;;;;;;;4.55;2.1;;;;;;;6.68;66.81152;94992.44;;;;
2022/05/29 00:45:13;;;;;;;4.55;2.1;;;;;;;6.68;66.81152;94992.44;;;;
2022/05/29 00:46:19;;;;;;;4;2.35;;;;;;;6.49;67.03613;94987.09;;;;
2022/05/29 00:47:19;;;;;;;4;2.35;;;;;;;6.49;67.03613;94987.09;;;;
2022/05/29 00:48:22;;;;;;;4;2.35;;;;;;;6.49;67.03613;94987.09;;;;
2022/05/29 00:49:23;;;;;;;4;2.35;;;;;;;6.49;67.03613;94987.09;;;;
2022/05/29 00:50:26;;;;;;;4;2.35;;;;;;;6.49;67.03613;94987.09;;;;
2022/05/29 00:51:26;;;;;;;4;2.35;;;;;;;6.49;67.03613;94987.09;;;;
2022/05/29 00:52:28;;;;;;;4;2.35;;;;;;;6.49;67.03613;94987.09;;;;
2022/05/29 00:53:28;;;;;;;4;2.35;;;;;;;6.49;67.03613;94987.09;;;;
2022/05/29 00:54:30;;;;;;;4;2.35;;;;;;;6.49;67.03613;94987.09;;;;
2022/05/29 00:55:35;;;;;;;4;2.35;;;;;;;6.49;67.03613;94987.09;;;;
2022/05/29 00:56:36;;;;;;;3.6;2.4;;;;;;;6.37;67.27441;94970.28;;;;
2022/05/29 00:57:38;;;;;;;3.6;2.4;;;;;;;6.37;67.27441;94970.28;;;;
2022/05/29 00:58:42;;;;;;;3.6;2.4;;;;;;;6.37;67.27441;94970.28;;;;
2022/05/29 00:59:44;;;;;;;3.6;2.4;;;;;;;6.37;67.27441;94970.28;;;;
2022/05/29 01:00:48;;;;;;;3.6;2.4;;;;;;;6.37;67.27441;94970.28;;;;
2022/05/29 01:01:50;;;;;;;3.6;2.4;;;;;;;6.37;67.27441;94970.28;;;;
2022/05/29 01:02:52;;;;;;;3.6;2.4;;;;;;;6.37;67.27441;94970.28;;;;
2022/05/29 01:03:55;;;;;;;3.6;2.4;;;;;;;6.37;67.27441;94970.28;;;;
2022/05/29 01:04:55;;;;;;;3.6;2.4;;;;;;;6.37;67.27441;94970.28;;;;
2022/05/29 01:05:56;;;;;;;3.6;2.4;;;;;;;6.37;67.27441;94970.28;;;;
2022/05/29 01:06:57;;;;;;;3.6;2.4;;;;;;;6.37;67.27441;94970.28;;;;
2022/05/29 01:08:01;;;;;;;4.1;2.15;;;;;;;6.18;67.52246;94954.32;;;;
2022/05/29 01:09:07;;;;;;;4.1;2.15;;;;;;;6.18;67.52246;94954.32;;;;
2022/05/29 01:10:10;;;;;;;4.1;2.15;;;;;;;6.18;67.52246;94954.32;;;;
2022/05/29 01:11:11;;;;;;;4.1;2.15;;;;;;;6.18;67.52246;94954.32;;;;
2022/05/29 01:12:23;;;;;;;4.1;2.15;;;;;;;6.18;67.52246;94954.32;;;;
2022/05/29 01:13:38;;;;;;;4.1;2.15;;;;;;;6.18;67.52246;94954.32;;;;
2022/05/29 01:14:51;;;;;;;4.1;2.15;;;;;;;6.18;67.52246;94954.32;;;;
2022/05/29 01:15:59;;;;;;;4.1;2.15;;;;;;;6.18;67.52246;94954.32;;;;
2022/05/29 01:17:07;;;;;;;4.1;2.15;;;;;;;6.18;67.52246;94954.32;;;;
2022/05/29 01:18:22;;;;;;;4.7;2.25;;;;;;;6.1;67.74414;94937.41;;;;
2022/05/29 01:19:34;;;;;;;4.7;2.25;;;;;;;6.1;67.74414;94937.41;;;;
2022/05/29 01:21:22;;;;;;;4.7;2.25;;;;;;;6.1;67.74414;94937.41;;;;
2022/05/29 01:22:42;;;;;;;4.7;2.25;;;;;;;6.1;67.74414;94937.41;;;;
2022/05/29 01:23:59;;;;;;;4.7;2.25;;;;;;;6.1;67.74414;94937.41;;;;
2022/05/29 01:25:21;;;;;;;4.7;2.25;;;;;;;6.1;67.74414;94937.41;;;;
2022/05/29 01:26:41;;;;;;;4.7;2.25;;;;;;;6.1;67.74414;94937.41;;;;
2022/05/29 01:28:04;;;;;;;4.7;2.25;;;;;;;6.1;67.74414;94937.41;;;;
2022/05/29 01:29:09;;;;;;;2.35;2.15;;;;;;;5.96;67.9375;94918.58;;;;
2022/05/29 01:30:15;;;;;;;2.35;2.15;;;;;;;5.96;67.9375;94918.58;;;;
2022/05/29 01:31:19;;;;;;;2.35;2.15;;;;;;;5.96;67.9375;94918.58;;;;
2022/05/29 01:32:33;;;;;;;2.35;2.15;;;;;;;5.96;67.9375;94918.58;;;;
2022/05/29 01:33:40;;;;;;;2.35;2.15;;;;;;;5.96;67.9375;94918.58;;;;
2022/05/29 01:34:46;;;;;;;2.35;2.15;;;;;;;5.96;67.9375;94918.58;;;;
2022/05/29 01:35:53;;;;;;;2.35;2.15;;;;;;;5.96;67.9375;94918.58;;;;
2022/05/29 01:36:59;;;;;;;2.35;2.15;;;;;;;5.96;67.9375;94918.58;;;;
2022/05/29 01:38:10;;;;;;;2.35;2.15;;;;;;;5.96;67.9375;94918.58;;;;
2022/05/29 01:39:16;;;;;;;3.45;2.35;;;;;;;5.91;68.12012;94904;;;;
2022/05/29 01:40:23;;;;;;;3.45;2.35;;;;;;;5.91;68.12012;94904;;;;
2022/05/29 01:41:34;;;;;;;3.45;2.35;;;;;;;5.91;68.12012;94904;;;;
2022/05/29 01:42:38;;;;;;;3.45;2.35;;;;;;;5.91;68.12012;94904;;;;
2022/05/29 01:43:45;;;;;;;3.45;2.35;;;;;;;5.91;68.12012;94904;;;;
2022/05/29 01:44:52;;;;;;;3.45;2.35;;;;;;;5.91;68.12012;94904;;;;
2022/05/29 01:45:58;;;;;;;3.45;2.35;;;;;;;5.91;68.12012;94904;;;;
2022/05/29 01:47:05;;;;;;;3.45;2.35;;;;;;;5.91;68.12012;94904;;;;
2022/05/29 01:48:12;;;;;;;3.45;2.35;;;;;;;5.91;68.12012;94904;;;;
2022/05/29 01:49:18;;;;;;;3.45;2.35;;;;;;;5.91;68.12012;94904;;;;
2022/05/29 01:50:24;;;;;;;3.3;2.5;;;;;;;5.75;68.26563;94884.53;;;;
2022/05/29 01:51:28;;;;;;;3.3;2.5;;;;;;;5.75;68.26563;94884.53;;;;
2022/05/29 01:52:37;;;;;;;3.3;2.5;;;;;;;5.75;68.26563;94884.53;;;;
2022/05/29 01:53:46;;;;;;;3.3;2.5;;;;;;;5.75;68.26563;94884.53;;;;
2022/05/29 01:54:50;;;;;;;3.3;2.5;;;;;;;5.75;68.26563;94884.53;;;;
2022/05/29 01:55:54;;;;;;;3.3;2.5;;;;;;;5.75;68.26563;94884.53;;;;
2022/05/29 01:57:00;;;;;;;3.3;2.5;;;;;;;5.75;68.26563;94884.53;;;;
2022/05/29 01:58:06;;;;;;;3.3;2.5;;;;;;;5.75;68.26563;94884.53;;;;
2022/05/29 01:59:20;;;;;;;3.3;2.5;;;;;;;5.75;68.26563;94884.53;;;;
2022/05/29 02:00:26;;;;;;;3.3;2.5;;;;;;;5.75;68.26563;94884.53;;;;
2022/05/29 02:01:27;;;;;;;4.7;2.5;;;;;;;5.66;68.4873;94866;;;;
2022/05/29 02:02:36;;;;;;;4.7;2.5;;;;;;;5.66;68.4873;94866;;;;
2022/05/29 02:03:39;;;;;;;4.7;2.5;;;;;;;5.66;68.4873;94866;;;;
2022/05/29 02:04:46;;;;;;;4.7;2.5;;;;;;;5.66;68.4873;94866;;;;
2022/05/29 02:05:53;;;;;;;4.7;2.5;;;;;;;5.66;68.4873;94866;;;;
2022/05/29 02:08:03;;;;;;;4.7;2.5;;;;;;;5.66;68.4873;94866;;;;
2022/05/29 02:09:10;;;;;;;4.7;2.5;;;;;;;5.66;68.4873;94866;;;;
2022/05/29 02:10:11;;;;;;;4.7;2.5;;;;;;;5.66;68.4873;94866;;;;
2022/05/29 02:11:17;;;;;;;4;2.35;;;;;;;5.51;68.71875;94850.48;;;;
2022/05/29 02:12:22;;;;;;;4;2.35;;;;;;;5.51;68.71875;94850.48;;;;
2022/05/29 02:13:26;;;;;;;4;2.35;;;;;;;5.51;68.71875;94850.48;;;;
2022/05/29 02:14:31;;;;;;;4;2.35;;;;;;;5.51;68.71875;94850.48;;;;
2022/05/29 02:15:36;;;;;;;4;2.35;;;;;;;5.51;68.71875;94850.48;;;;
2022/05/29 02:16:42;;;;;;;4;2.35;;;;;;;5.51;68.71875;94850.48;;;;
2022/05/29 02:17:46;;;;;;;4;2.35;;;;;;;5.51;68.71875;94850.48;;;;
2022/05/29 02:18:53;;;;;;;4;2.35;;;;;;;5.51;68.71875;94850.48;;;;
2022/05/29 02:20:00;;;;;;;4;2.35;;;;;;;5.51;68.71875;94850.48;;;;
2022/05/29 02:21:05;;;;;;;4;2.35;;;;;;;5.51;68.71875;94850.48;;;;
2022/05/29 02:22:10;;;;;;;2.8;2.2;;;;;;;5.45;68.87891;94823.3;;;;
2022/05/29 02:23:17;;;;;;;2.8;2.2;;;;;;;5.45;68.87891;94823.3;;;;
2022/05/29 02:24:27;;;;;;;2.8;2.2;;;;;;;5.45;68.87891;94823.3;;;;
2022/05/29 02:25:32;;;;;;;2.8;2.2;;;;;;;5.45;68.87891;94823.3;;;;
2022/05/29 02:26:36;;;;;;;2.8;2.2;;;;;;;5.45;68.87891;94823.3;;;;
2022/05/29 02:27:42;;;;;;;2.8;2.2;;;;;;;5.45;68.87891;94823.3;;;;
2022/05/29 02:28:49;;;;;;;2.8;2.2;;;;;;;5.45;68.87891;94823.3;;;;
2022/05/29 02:29:54;;;;;;;2.8;2.2;;;;;;;5.45;68.87891;94823.3;;;;
2022/05/29 02:30:55;;;;;;;2.8;2.2;;;;;;;5.45;68.87891;94823.3;;;;
2022/05/29 02:32:05;;;;;;;2.8;2.2;;;;;;;5.45;68.87891;94823.3;;;;
2022/05/29 02:33:16;;;;;;;4.45;2.6;;;;;;;5.29;69.06641;94819.18;;;;
2022/05/29 02:34:22;;;;;;;4.45;2.6;;;;;;;5.29;69.06641;94819.18;;;;
2022/05/29 02:35:31;;;;;;;4.45;2.6;;;;;;;5.29;69.06641;94819.18;;;;
2022/05/29 02:36:39;;;;;;;4.45;2.6;;;;;;;5.29;69.06641;94819.18;;;;
2022/05/29 02:37:58;;;;;;;4.45;2.6;;;;;;;5.29;69.06641;94819.18;;;;
2022/05/29 02:39:05;;;;;;;4.45;2.6;;;;;;;5.29;69.06641;94819.18;;;;
2022/05/29 02:40:24;;;;;;;4.45;2.6;;;;;;;5.29;69.06641;94819.18;;;;
2022/05/29 02:41:31;;;;;;;4.45;2.6;;;;;;;5.29;69.06641;94819.18;;;;
2022/05/29 02:42:44;;;;;;;4.45;2.6;;;;;;;5.29;69.06641;94819.18;;;;
2022/05/29 02:43:55;;;;;;;4.35;2.2;;;;;;;5.23;69.23828;94822.16;;;;
2022/05/29 02:45:06;;;;;;;4.35;2.2;;;;;;;5.23;69.23828;94822.16;;;;
2022/05/29 02:46:19;;;;;;;4.35;2.2;;;;;;;5.23;69.23828;94822.16;;;;
2022/05/29 02:47:32;;;;;;;4.35;2.2;;;;;;;5.23;69.23828;94822.16;;;;
2022/05/29 02:48:44;;;;;;;4.35;2.2;;;;;;;5.23;69.23828;94822.16;;;;
2022/05/29 02:49:53;;;;;;;4.35;2.2;;;;;;;5.23;69.23828;94822.16;;;;
2022/05/29 02:51:17;;;;;;;4.35;2.2;;;;;;;5.23;69.23828;94822.16;;;;
2022/05/29 02:52:24;;;;;;;4.35;2.2;;;;;;;5.23;69.23828;94822.16;;;;
2022/05/29 02:53:25;;;;;;;4.35;2.2;;;;;;;5.23;69.23828;94822.16;;;;
2022/05/29 02:54:25;;;;;;;3.25;2.45;;;;;;;5.11;69.39941;94801.81;;;;
2022/05/29 02:55:28;;;;;;;3.25;2.45;;;;;;;5.11;69.39941;94801.81;;;;
2022/05/29 02:56:29;;;;;;;3.25;2.45;;;;;;;5.11;69.39941;94801.81;;;;
2022/05/29 02:57:29;;;;;;;3.25;2.45;;;;;;;5.11;69.39941;94801.81;;;;
2022/05/29 02:58:30;;;;;;;3.25;2.45;;;;;;;5.11;69.39941;94801.81;;;;
2022/05/29 02:59:33;;;;;;;3.25;2.45;;;;;;;5.11;69.39941;94801.81;;;;
2022/05/29 03:00:39;;;;;;;3.25;2.45;;;;;;;5.11;69.39941;94801.81;;;;
2022/05/29 03:01:58;;;;;;;3.25;2.45;;;;;;;5.11;69.39941;94801.81;;;;
2022/05/29 03:03:08;;;;;;;3.25;2.45;;;;;;;5.11;69.39941;94801.81;;;;
2022/05/29 03:04:21;;;;;;;3.25;2.45;;;;;;;5.11;69.39941;94801.81;;;;
2022/05/29 03:05:31;;;;;;;3.6;2.4;;;;;;;5.04;69.53613;94779.61;;;;
2022/05/29 03:06:44;;;;;;;3.6;2.4;;;;;;;5.04;69.53613;94779.61;;;;
2022/05/29 03:07:52;;;;;;;3.6;2.4;;;;;;;5.04;69.53613;94779.61;;;;
2022/05/29 03:09:12;;;;;;;3.6;2.4;;;;;;;5.04;69.53613;94779.61;;;;
2022/05/29 03:10:27;;;;;;;3.6;2.4;;;;;;;5.04;69.53613;94779.61;;;;
2022/05/29 03:11:34;;;;;;;3.6;2.4;;;;;;;5.04;69.53613;94779.61;;;;
2022/05/29 03:12:39;;;;;;;3.6;2.4;;;;;;;5.04;69.53613;94779.61;;;;
2022/05/29 03:13:48;;;;;;;3.6;2.4;;;;;;;5.04;69.53613;94779.61;;;;
2022/05/29 03:14:58;;;;;;;3.6;2.4;;;;;;;5.04;69.53613;94779.61;;;;
2022/05/29 03:16:11;;;;;;;2.8;2.05;;;;;;;4.94;69.72266;94774.7;;;;
2022/05/29 03:17:22;;;;;;;2.8;2.05;;;;;;;4.94;69.72266;94774.7;;;;
2022/05/29 03:18:32;;;;;;;2.8;2.05;;;;;;;4.94;69.72266;94774.7;;;;
2022/05/29 03:19:42;;;;;;;2.8;2.05;;;;;;;4.94;69.72266;94774.7;;;;
2022/05/29 03:20:51;;;;;;;2.8;2.05;;;;;;;4.94;69.72266;94774.7;;;;
2022/05/29 03:22:05;;;;;;;2.8;2.05;;;;;;;4.94;69.72266;94774.7;;;;
2022/05/29 03:23:13;;;;;;;2.8;2.05;;;;;;;4.94;69.72266;94774.7;;;;
2022/05/29 03:24:22;;;;;;;2.8;2.05;;;;;;;4.94;69.72266;94774.7;;;;
2022/05/29 03:25:28;;;;;;;2.8;2.05;;;;;;;4.94;69.72266;94774.7;;;;
2022/05/29 03:26:33;;;;;;;2.95;2.3;;;;;;;4.93;69.88086;94767.83;;;;
2022/05/29 03:27:43;;;;;;;2.95;2.3;;;;;;;4.93;69.88086;94767.83;;;;
2022/05/29 03:28:46;;;;;;;2.95;2.3;;;;;;;4.93;69.88086;94767.83;;;;
2022/05/29 03:29:58;;;;;;;2.95;2.3;;;;;;;4.93;69.88086;94767.83;;;;
2022/05/29 03:31:07;;;;;;;2.95;2.3;;;;;;;4.93;69.88086;94767.83;;;;
2022/05/29 03:32:12;;;;;;;2.95;2.3;;;;;;;4.93;69.88086;94767.83;;;;
2022/05/29 03:33:14;;;;;;;2.95;2.3;;;;;;;4.93;69.88086;94767.83;;;;
2022/05/29 03:34:15;;;;;;;2.95;2.3;;;;;;;4.93;69.88086;94767.83;;;;
2022/05/29 03:35:16;;;;;;;2.95;2.3;;;;;;;4.93;69.88086;94767.83;;;;
2022/05/29 03:36:23;;;;;;;2.95;2.3;;;;;;;4.93;69.88086;94767.83;;;;
2022/05/29 03:37:23;;;;;;;3.4;2.4;;;;;;;4.88;70.06445;94775.44;;;;
2022/05/29 03:38:24;;;;;;;3.4;2.4;;;;;;;4.88;70.06445;94775.44;;;;
2022/05/29 03:39:24;;;;;;;3.4;2.4;;;;;;;4.88;70.06445;94775.44;;;;
2022/05/29 03:40:25;;;;;;;3.4;2.4;;;;;;;4.88;70.06445;94775.44;;;;
2022/05/29 03:41:29;;;;;;;3.4;2.4;;;;;;;4.88;70.06445;94775.44;;;;
2022/05/29 03:42:36;;;;;;;3.4;2.4;;;;;;;4.88;70.06445;94775.44;;;;
2022/05/29 03:43:36;;;;;;;3.4;2.4;;;;;;;4.88;70.06445;94775.44;;;;
2022/05/29 03:44:37;;;;;;;3.4;2.4;;;;;;;4.88;70.06445;94775.44;;;;
2022/05/29 03:45:37;;;;;;;3.4;2.4;;;;;;;4.88;70.06445;94775.44;;;;
2022/05/29 03:46:39;;;;;;;3.4;2.4;;;;;;;4.88;70.06445;94775.44;;;;
2022/05/29 03:47:40;;;;;;;2.6;2.05;;;;;;;4.95;70.13965;94778.94;;;;
2022/05/29 03:48:41;;;;;;;2.6;2.05;;;;;;;4.95;70.13965;94778.94;;;;
2022/05/29 03:49:41;;;;;;;2.6;2.05;;;;;;;4.95;70.13965;94778.94;;;;
2022/05/29 03:50:42;;;;;;;2.6;2.05;;;;;;;4.95;70.13965;94778.94;;;;
2022/05/29 03:51:42;;;;;;;2.6;2.05;;;;;;;4.95;70.13965;94778.94;;;;
2022/05/29 03:52:43;;;;;;;2.6;2.05;;;;;;;4.95;70.13965;94778.94;;;;
2022/05/29 03:53:45;;;;;;;2.6;2.05;;;;;;;4.95;70.13965;94778.94;;;;
2022/05/29 03:54:45;;;;;;;2.6;2.05;;;;;;;4.95;70.13965;94778.94;;;;
2022/05/29 03:55:46;;;;;;;2.6;2.05;;;;;;;4.95;70.13965;94778.94;;;;
2022/05/29 03:56:46;;;;;;;2.6;2.05;;;;;;;4.95;70.13965;94778.94;;;;
2022/05/29 03:57:47;;;;;;;2.6;2.05;;;;;;;4.95;70.13965;94778.94;;;;
2022/05/29 03:58:47;;;;;;;3.25;2.45;;;;;;;4.95;70.19238;94774.59;;;;
2022/05/29 03:59:48;;;;;;;3.25;2.45;;;;;;;4.95;70.19238;94774.59;;;;
2022/05/29 04:00:48;;;;;;;3.25;2.45;;;;;;;4.95;70.19238;94774.59;;;;
2022/05/29 04:01:48;;;;;;;3.25;2.45;;;;;;;4.95;70.19238;94774.59;;;;
2022/05/29 04:02:49;;;;;;;3.25;2.45;;;;;;;4.95;70.19238;94774.59;;;;
2022/05/29 04:03:53;;;;;;;3.25;2.45;;;;;;;4.95;70.19238;94774.59;;;;
2022/05/29 04:04:54;;;;;;;3.25;2.45;;;;;;;4.95;70.19238;94774.59;;;;
2022/05/29 04:05:55;;;;;;;3.25;2.45;;;;;;;4.95;70.19238;94774.59;;;;
2022/05/29 04:06:55;;;;;;;3.25;2.45;;;;;;;4.95;70.19238;94774.59;;;;
2022/05/29 04:12:57;;;;;;;4.050001;2.6;;;;;;;5.08;70.33984;94766.02;;;;
2022/05/29 04:13:58;;;;;;;4.050001;2.6;;;;;;;5.08;70.33984;94766.02;;;;
2022/05/29 04:14:59;;;;;;;4.050001;2.6;;;;;;;5.08;70.33984;94766.02;;;;
2022/05/29 04:15:59;;;;;;;4.050001;2.6;;;;;;;5.08;70.33984;94766.02;;;;
2022/05/29 04:17:00;;;;;;;4.050001;2.6;;;;;;;5.08;70.33984;94766.02;;;;
2022/05/29 04:18:00;;;;;;;4.050001;2.6;;;;;;;5.08;70.33984;94766.02;;;;
2022/05/29 04:19:01;;;;;;;4.050001;2.6;;;;;;;5.08;70.33984;94766.02;;;;
2022/05/29 04:20:02;;;;;;;3.6;2.5;;;;;;;5.15;70.46973;94763.78;;;;
2022/05/29 04:21:05;;;;;;;3.6;2.5;;;;;;;5.15;70.46973;94763.78;;;;
2022/05/29 04:22:06;;;;;;;3.6;2.5;;;;;;;5.15;70.46973;94763.78;;;;
2022/05/29 04:23:07;;;;;;;3.6;2.5;;;;;;;5.15;70.46973;94763.78;;;;
2022/05/29 04:24:08;;;;;;;3.6;2.5;;;;;;;5.15;70.46973;94763.78;;;;
2022/05/29 04:25:08;;;;;;;3.6;2.5;;;;;;;5.15;70.46973;94763.78;;;;
2022/05/29 04:26:09;;;;;;;3.6;2.5;;;;;;;5.15;70.46973;94763.78;;;;
2022/05/29 04:27:12;;;;;;;3.6;2.5;;;;;;;5.15;70.46973;94763.78;;;;
2022/05/29 04:28:15;;;;;;;3.6;2.5;;;;;;;5.15;70.46973;94763.78;;;;
2022/05/29 04:29:16;;;;;;;3.6;2.5;;;;;;;5.15;70.46973;94763.78;;;;
2022/05/29 04:30:17;;;;;;;2.7;2.5;;;;;;;5.4;70.57422;94750.09;;;;
2022/05/29 04:31:19;;;;;;;2.7;2.5;;;;;;;5.4;70.57422;94750.09;;;;
2022/05/29 04:33:24;;;;;;;2.7;2.5;;;;;;;5.4;70.57422;94750.09;;;;
2022/05/29 04:34:25;;;;;;;2.7;2.5;;;;;;;5.4;70.57422;94750.09;;;;
2022/05/29 04:35:25;;;;;;;2.7;2.5;;;;;;;5.4;70.57422;94750.09;;;;
2022/05/29 04:36:26;;;;;;;2.7;2.5;;;;;;;5.4;70.57422;94750.09;;;;
2022/05/29 04:37:27;;;;;;;2.7;2.5;;;;;;;5.4;70.57422;94750.09;;;;
2022/05/29 04:38:28;;;;;;;2.7;2.5;;;;;;;5.4;70.57422;94750.09;;;;
2022/05/29 04:39:32;;;;;;;2.7;2.5;;;;;;;5.4;70.57422;94750.09;;;;
2022/05/29 04:40:33;;;;;;;2.7;2.5;;;;;;;5.4;70.57422;94750.09;;;;
2022/05/29 04:41:35;;;;;;;2.6;2.2;;;;;;;5.63;70.64355;94737.11;;;;
2022/05/29 04:42:36;;;;;;;2.6;2.2;;;;;;;5.63;70.64355;94737.11;;;;
2022/05/29 04:43:36;;;;;;;2.6;2.2;;;;;;;5.63;70.64355;94737.11;;;;
2022/05/29 04:44:37;;;;;;;2.6;2.2;;;;;;;5.63;70.64355;94737.11;;;;
2022/05/29 04:45:38;;;;;;;2.6;2.2;;;;;;;5.63;70.64355;94737.11;;;;
2022/05/29 04:46:39;;;;;;;2.6;2.2;;;;;;;5.63;70.64355;94737.11;;;;
2022/05/29 04:47:40;;;;;;;2.6;2.2;;;;;;;5.63;70.64355;94737.11;;;;
2022/05/29 04:48:41;;;;;;;2.6;2.2;;;;;;;5.63;70.64355;94737.11;;;;
2022/05/29 04:49:42;;;;;;;2.6;2.2;;;;;;;5.63;70.64355;94737.11;;;;
2022/05/29 04:50:42;;;;;;;2.6;2.2;;;;;;;5.63;70.64355;94737.11;;;;
2022/05/29 04:51:43;;;;;;;3.95;2.65;;;;;;;6.09;70.85645;94735.1;;;;
2022/05/29 04:52:43;;;;;;;3.95;2.65;;;;;;;6.09;70.85645;94735.1;;;;
2022/05/29 04:53:44;;;;;;;3.95;2.65;;;;;;;6.09;70.85645;94735.1;;;;
2022/05/29 04:54:44;;;;;;;3.95;2.65;;;;;;;6.09;70.85645;94735.1;;;;
2022/05/29 04:55:45;;;;;;;3.95;2.65;;;;;;;6.09;70.85645;94735.1;;;;
2022/05/29 04:56:45;;;;;;;3.95;2.65;;;;;;;6.09;70.85645;94735.1;;;;
2022/05/29 04:57:46;;;;;;;3.95;2.65;;;;;;;6.09;70.85645;94735.1;;;;
2022/05/29 04:58:46;;;;;;;3.95;2.65;;;;;;;6.09;70.85645;94735.1;;;;
2022/05/29 04:59:47;;;;;;;3.95;2.65;;;;;;;6.09;70.85645;94735.1;;;;
2022/05/29 05:00:47;;;;;;;3.95;2.65;;;;;;;6.09;70.85645;94735.1;;;;
2022/05/29 05:01:49;;;;;;;3.95;2.65;;;;;;;6.09;70.85645;94735.1;;;;
2022/05/29 05:02:49;;;;;;;4.099999;2.5;;;;;;;6.54;70.7832;94729.53;;;;
2022/05/29 05:03:49;;;;;;;4.099999;2.5;;;;;;;6.54;70.7832;94729.53;;;;
2022/05/29 05:04:50;;;;;;;4.099999;2.5;;;;;;;6.54;70.7832;94729.53;;;;
2022/05/29 05:05:51;;;;;;;4.099999;2.5;;;;;;;6.54;70.7832;94729.53;;;;
2022/05/29 05:06:52;;;;;;;4.099999;2.5;;;;;;;6.54;70.7832;94729.53;;;;
2022/05/29 05:07:54;;;;;;;4.099999;2.5;;;;;;;6.54;70.7832;94729.53;;;;
2022/05/29 05:08:54;;;;;;;4.099999;2.5;;;;;;;6.54;70.7832;94729.53;;;;
2022/05/29 05:09:55;;;;;;;4.099999;2.5;;;;;;;6.54;70.7832;94729.53;;;;
2022/05/29 05:10:55;;;;;;;4.099999;2.5;;;;;;;6.54;70.7832;94729.53;;;;
2022/05/29 05:11:56;;;;;;;4.099999;2.5;;;;;;;6.54;70.7832;94729.53;;;;
2022/05/29 05:12:57;;;;;;;5;3.15;;;;;;;7.36;70.18945;94721.08;;;;
2022/05/29 05:13:58;;;;;;;5;3.15;;;;;;;7.36;70.18945;94721.08;;;;
2022/05/29 05:14:58;;;;;;;5;3.15;;;;;;;7.36;70.18945;94721.08;;;;
2022/05/29 05:15:59;;;;;;;5;3.15;;;;;;;7.36;70.18945;94721.08;;;;
2022/05/29 05:17:00;;;;;;;5;3.15;;;;;;;7.36;70.18945;94721.08;;;;
2022/05/29 05:18:00;;;;;;;5;3.15;;;;;;;7.36;70.18945;94721.08;;;;
2022/05/29 05:19:01;;;;;;;5;3.15;;;;;;;7.36;70.18945;94721.08;;;;
2022/05/29 05:20:02;;;;;;;5;3.15;;;;;;;7.36;70.18945;94721.08;;;;
2022/05/29 05:21:04;;;;;;;5;3.15;;;;;;;7.36;70.18945;94721.08;;;;
2022/05/29 05:22:08;;;;;;;5;3.15;;;;;;;7.36;70.18945;94721.08;;;;
2022/05/29 05:23:09;;;;;;;5;3.15;;;;;;;7.36;70.18945;94721.08;;;;
2022/05/29 05:24:09;;;;;;;6.400001;3.3;;;;;;;8.33;69.60547;94739.23;;;;
2022/05/29 05:25:10;;;;;;;6.400001;3.3;;;;;;;8.33;69.60547;94739.23;;;;
2022/05/29 05:26:11;;;;;;;6.400001;3.3;;;;;;;8.33;69.60547;94739.23;;;;
2022/05/29 05:27:12;;;;;;;6.400001;3.3;;;;;;;8.33;69.60547;94739.23;;;;
2022/05/29 05:28:13;;;;;;;6.400001;3.3;;;;;;;8.33;69.60547;94739.23;;;;
2022/05/29 05:29:14;;;;;;;6.400001;3.3;;;;;;;8.33;69.60547;94739.23;;;;
2022/05/29 05:30:14;;;;;;;6.400001;3.3;;;;;;;8.33;69.60547;94739.23;;;;
2022/05/29 05:31:15;;;;;;;6.400001;3.3;;;;;;;8.33;69.60547;94739.23;;;;
2022/05/29 05:32:16;;;;;;;6.400001;3.3;;;;;;;8.33;69.60547;94739.23;;;;
2022/05/29 05:33:16;;;;;;;6.400001;3.3;;;;;;;8.33;69.60547;94739.23;;;;
2022/05/29 05:34:17;;;;;;;6.400001;3.3;;;;;;;8.33;69.60547;94739.23;;;;
2022/05/29 05:35:17;;;;;;;5.2;3.05;;;;;;;9.17;69.35449;94755.47;;;;
2022/05/29 05:36:18;;;;;;;5.2;3.05;;;;;;;9.17;69.35449;94755.47;;;;
2022/05/29 05:37:19;;;;;;;5.2;3.05;;;;;;;9.17;69.35449;94755.47;;;;
2022/05/29 05:38:20;;;;;;;5.2;3.05;;;;;;;9.17;69.35449;94755.47;;;;
2022/05/29 05:39:20;;;;;;;5.2;3.05;;;;;;;9.17;69.35449;94755.47;;;;
2022/05/29 05:40:21;;;;;;;5.2;3.05;;;;;;;9.17;69.35449;94755.47;;;;
2022/05/29 05:41:22;;;;;;;5.2;3.05;;;;;;;9.17;69.35449;94755.47;;;;
2022/05/29 05:42:24;;;;;;;5.2;3.05;;;;;;;9.17;69.35449;94755.47;;;;
2022/05/29 05:43:24;;;;;;;5.2;3.05;;;;;;;9.17;69.35449;94755.47;;;;
2022/05/29 05:44:25;;;;;;;5.2;3.05;;;;;;;9.17;69.35449;94755.47;;;;
2022/05/29 05:45:26;;;;;;;4.699999;4.05;;;;;;;9.87;69.31543;94758.12;;;;
2022/05/29 05:46:26;;;;;;;4.699999;4.05;;;;;;;9.87;69.31543;94758.12;;;;
2022/05/29 05:47:27;;;;;;;4.699999;4.05;;;;;;;9.87;69.31543;94758.12;;;;
2022/05/29 05:48:30;;;;;;;4.699999;4.05;;;;;;;9.87;69.31543;94758.12;;;;
2022/05/29 05:49:31;;;;;;;4.699999;4.05;;;;;;;9.87;69.31543;94758.12;;;;
2022/05/29 05:50:31;;;;;;;4.699999;4.05;;;;;;;9.87;69.31543;94758.12;;;;
2022/05/29 05:51:32;;;;;;;4.699999;4.05;;;;;;;9.87;69.31543;94758.12;;;;
2022/05/29 05:52:32;;;;;;;4.699999;4.05;;;;;;;9.87;69.31543;94758.12;;;;
2022/05/29 05:53:33;;;;;;;4.699999;4.05;;;;;;;9.87;69.31543;94758.12;;;;
2022/05/29 05:54:34;;;;;;;4.699999;4.05;;;;;;;9.87;69.31543;94758.12;;;;
2022/05/29 05:55:36;;;;;;;4.699999;4.05;;;;;;;9.87;69.31543;94758.12;;;;
2022/05/29 05:56:36;;;;;;;4.099999;3.25;;;;;;;10.55;69.25098;94756.49;;;;
2022/05/29 05:57:40;;;;;;;4.099999;3.25;;;;;;;10.55;69.25098;94756.49;;;;
2022/05/29 05:58:42;;;;;;;4.099999;3.25;;;;;;;10.55;69.25098;94756.49;;;;
2022/05/29 05:59:44;;;;;;;4.099999;3.25;;;;;;;10.55;69.25098;94756.49;;;;
2022/05/29 06:00:45;;;;;;;4.099999;3.25;;;;;;;10.55;69.25098;94756.49;;;;
2022/05/29 06:01:47;;;;;;;4.099999;3.25;;;;;;;10.55;69.25098;94756.49;;;;
2022/05/29 06:02:48;;;;;;;4.099999;3.25;;;;;;;10.55;69.25098;94756.49;;;;
2022/05/29 06:03:48;;;;;;;4.099999;3.25;;;;;;;10.55;69.25098;94756.49;;;;
2022/05/29 06:04:49;;;;;;;4.099999;3.25;;;;;;;10.55;69.25098;94756.49;;;;
2022/05/29 06:05:49;;;;;;;4.099999;3.25;;;;;;;10.55;69.25098;94756.49;;;;
2022/05/29 06:06:50;;;;;;;4.75;3.7;;;;;;;11.07;69.06445;94749.89;;;;
2022/05/29 06:07:50;;;;;;;4.75;3.7;;;;;;;11.07;69.06445;94749.89;;;;
2022/05/29 06:08:51;;;;;;;4.75;3.7;;;;;;;11.07;69.06445;94749.89;;;;
2022/05/29 06:09:51;;;;;;;4.75;3.7;;;;;;;11.07;69.06445;94749.89;;;;
2022/05/29 06:10:52;;;;;;;4.75;3.7;;;;;;;11.07;69.06445;94749.89;;;;
2022/05/29 06:11:52;;;;;;;4.75;3.7;;;;;;;11.07;69.06445;94749.89;;;;
2022/05/29 06:12:53;;;;;;;4.75;3.7;;;;;;;11.07;69.06445;94749.89;;;;
2022/05/29 06:13:53;;;;;;;4.75;3.7;;;;;;;11.07;69.06445;94749.89;;;;
2022/05/29 06:14:55;;;;;;;4.75;3.7;;;;;;;11.07;69.06445;94749.89;;;;
2022/05/29 06:15:57;;;;;;;4.75;3.7;;;;;;;11.07;69.06445;94749.89;;;;
2022/05/29 06:16:59;;;;;;;4.75;3.7;;;;;;;11.07;69.06445;94749.89;;;;
2022/05/29 06:17:59;;;;;;;5.45;4.1;;;;;;;11.61;69.00781;94733.81;;;;
2022/05/29 06:19:00;;;;;;;5.45;4.1;;;;;;;11.61;69.00781;94733.81;;;;
2022/05/29 06:20:01;;;;;;;5.45;4.1;;;;;;;11.61;69.00781;94733.81;;;;